Time;durP1;ratioP1;P1;durP2;ratioP2;P2;SDS_P1;SDS_P2;PMS_P1;PMS_P2;Temp;Humidity;BMP_temperature;BMP_pressure;BME280_temperature;BME280_humidity;BME280_pressure;Samples;Min_cycle;Max_cycle;Signal;HPM_P1;HPM_P2
2022/10/18 03:02:53;;;;;;;;;;;15.40;99.90;;;;;;5103245;23;19978;-69
2022/10/18 03:05:20;;;;;;;;;;;15.40;99.90;;;;;;5033953;28;20387;-67
2022/10/18 03:07:46;;;;;;;;;;;15.40;99.90;;;;;;5032787;28;20449;-67
2022/10/18 03:10:13;;;;;;;;;;;15.40;99.90;;;;;;5032456;28;20024;-67
2022/10/18 03:12:40;;;;;;;;;;;15.40;99.90;;;;;;5015944;28;20395;-68
2022/10/18 03:15:07;;;;;;;;;;;15.40;99.90;;;;;;5012556;28;20016;-67
2022/10/18 03:17:33;;;;;;;;;;;15.40;99.90;;;;;;5012658;28;19979;-68
2022/10/18 03:20:01;;;;;;;;;;;15.40;99.90;;;;;;5013222;28;20038;-67
2022/10/18 03:22:28;;;;;;;;;;;15.40;99.90;;;;;;5013452;28;20501;-66
2022/10/18 03:24:54;;;;;;;;;;;15.40;99.90;;;;;;5013816;28;20019;-67
2022/10/18 03:27:21;;;;;;;;;;;15.40;99.90;;;;;;5013661;28;20003;-66
2022/10/18 03:29:48;;;;;;;;;;;15.40;99.90;;;;;;5013256;28;20364;-67
2022/10/18 03:32:15;;;;;;;;;;;15.40;99.90;;;;;;5013240;28;19929;-67
2022/10/18 03:34:41;;;;;;;;;;;15.30;99.90;;;;;;5013244;28;20342;-67
2022/10/18 03:37:10;;;;;;;;;;;15.30;99.90;;;;;;5013284;28;19929;-67
2022/10/18 03:39:36;;;;;;;;;;;15.30;99.90;;;;;;5012759;28;19929;-68
2022/10/18 03:42:03;;;;;;;;;;;15.30;99.90;;;;;;5013161;28;19926;-67
2022/10/18 03:44:30;;;;;;;;;;;15.30;99.90;;;;;;5013590;28;19948;-67
2022/10/18 03:46:56;;;;;;;;;;;15.30;99.90;;;;;;5013453;28;19925;-67
2022/10/18 03:49:23;;;;;;;;;;;15.30;99.90;;;;;;5012688;28;19925;-67
2022/10/18 03:51:50;;;;;;;;;;;15.30;99.90;;;;;;5013213;28;20335;-67
2022/10/18 03:54:18;;;;;;;;;;;15.40;99.90;;;;;;5013120;28;19926;-67
2022/10/18 03:56:45;;;;;;;;;;;15.40;99.90;;;;;;5013130;28;19976;-68
2022/10/18 03:59:12;;;;;;;;;;;15.40;99.90;;;;;;5012754;28;19936;-67
2022/10/18 04:01:39;;;;;;;;;;;15.40;99.90;;;;;;5012735;28;19929;-67
2022/10/18 04:04:05;;;;;;;;;;;15.40;99.90;;;;;;5013028;28;19925;-68
2022/10/18 04:06:32;;;;;;;;;;;15.40;99.90;;;;;;5012811;28;19932;-67
2022/10/18 04:08:59;;;;;;;;;;;15.40;99.90;;;;;;5012541;28;19929;-67
2022/10/18 04:11:27;;;;;;;;;;;15.40;99.90;;;;;;5011502;28;19989;-67
2022/10/18 04:13:54;;;;;;;;;;;15.40;99.90;;;;;;5012794;28;19926;-67
2022/10/18 04:16:21;;;;;;;;;;;15.40;99.90;;;;;;5012689;28;19925;-67
2022/10/18 04:18:48;;;;;;;;;;;15.40;99.90;;;;;;5003485;28;19930;-67
2022/10/18 04:21:14;;;;;;;;;;;15.40;99.90;;;;;;4993244;28;19926;-66
2022/10/18 04:23:41;;;;;;;;;;;15.40;99.90;;;;;;4999125;28;19976;-67
2022/10/18 04:26:08;;;;;;;;;;;15.50;99.90;;;;;;5003752;28;20384;-68
2022/10/18 04:28:38;;;;;;;;;;;15.50;99.90;;;;;;5004200;28;19933;-67
2022/10/18 04:31:05;;;;;;;;;;;15.50;99.90;;;;;;5012262;28;19925;-67
2022/10/18 04:33:32;;;;;;;;;;;15.50;99.90;;;;;;5012615;28;19926;-67
2022/10/18 04:35:59;;;;;;;;;;;15.50;99.90;;;;;;5012328;28;19972;-68
2022/10/18 04:38:25;;;;;;;;;;;15.50;99.90;;;;;;5011884;28;19940;-68
2022/10/18 04:40:52;;;;;;;;;;;15.50;99.90;;;;;;5011904;28;19929;-68
2022/10/18 04:43:19;;;;;;;;;;;15.50;99.90;;;;;;5011811;28;19929;-67
2022/10/18 04:45:49;;;;;;;;;;;15.50;99.90;;;;;;5012301;28;19937;-68
2022/10/18 04:48:17;;;;;;;;;;;15.50;99.90;;;;;;5011873;28;19925;-67
2022/10/18 04:50:44;;;;;;;;;;;15.50;99.90;;;;;;5011959;28;19926;-69
2022/10/18 04:53:14;;;;;;;;;;;15.50;99.90;;;;;;5012375;28;19925;-68
2022/10/18 04:55:42;;;;;;;;;;;15.50;99.90;;;;;;5011785;28;19926;-67
2022/10/18 04:58:09;;;;;;;;;;;15.50;99.90;;;;;;5011976;28;19933;-67
2022/10/18 05:00:37;;;;;;;;;;;15.50;99.90;;;;;;5011553;28;20462;-69
2022/10/18 05:03:05;;;;;;;;;;;15.50;99.90;;;;;;5004307;28;20304;-67
2022/10/18 05:05:32;;;;;;;;;;;15.50;99.90;;;;;;4993927;28;20106;-67
2022/10/18 05:07:58;;;;;;;;;;;15.50;99.90;;;;;;5008042;28;19969;-68
2022/10/18 05:10:25;;;;;;;;;;;15.50;99.90;;;;;;4999417;28;20024;-67
2022/10/18 05:12:52;;;;;;;;;;;15.50;99.90;;;;;;5001089;28;19961;-67
2022/10/18 05:15:18;;;;;;;;;;;15.50;99.90;;;;;;5005464;28;19972;-67
2022/10/18 05:17:45;;;;;;;;;;;15.50;99.90;;;;;;5035452;23;19972;-64
2022/10/18 05:20:13;;;;;;;;;;;15.50;99.90;;;;;;5018498;28;19965;-67
2022/10/18 05:22:40;;;;;;;;;;;15.50;99.90;;;;;;5011077;28;19995;-68
2022/10/18 05:25:07;;;;;;;;;;;15.50;99.90;;;;;;5011311;28;20013;-67
2022/10/18 05:27:34;;;;;;;;;;;15.50;99.90;;;;;;5011591;28;19972;-66
2022/10/18 05:30:00;;;;;;;;;;;15.50;99.90;;;;;;5012114;28;20041;-66
2022/10/18 05:32:27;;;;;;;;;;;15.50;99.90;;;;;;5012709;28;20427;-66
2022/10/18 05:34:53;;;;;;;;;;;15.50;99.90;;;;;;5011679;28;20381;-66
2022/10/18 05:37:22;;;;;;;;;;;15.50;99.90;;;;;;5011211;28;19925;-66
2022/10/18 05:39:48;;;;;;;;;;;15.50;99.90;;;;;;4991920;28;19930;-72
2022/10/18 05:42:15;;;;;;;;;;;15.50;99.90;;;;;;4990787;28;20392;-66
2022/10/18 05:44:42;;;;;;;;;;;15.50;99.90;;;;;;4991456;28;19935;-67
2022/10/18 05:47:09;;;;;;;;;;;15.50;99.90;;;;;;4991351;28;19933;-66
2022/10/18 05:49:35;;;;;;;;;;;15.50;99.90;;;;;;4990948;28;19925;-66
2022/10/18 05:52:02;;;;;;;;;;;15.50;99.90;;;;;;4991701;28;19926;-66
2022/10/18 05:54:30;;;;;;;;;;;15.50;99.90;;;;;;4991397;28;20352;-66
2022/10/18 05:56:57;;;;;;;;;;;15.40;99.90;;;;;;4991616;28;19933;-66
2022/10/18 05:59:24;;;;;;;;;;;15.40;99.90;;;;;;4990516;28;19936;-65
2022/10/18 06:01:51;;;;;;;;;;;15.50;99.90;;;;;;4991063;28;19933;-66
2022/10/18 06:04:17;;;;;;;;;;;15.40;99.90;;;;;;4991413;28;19930;-66
2022/10/18 06:06:44;;;;;;;;;;;15.50;99.90;;;;;;4991565;28;19994;-66
2022/10/18 06:09:11;;;;;;;;;;;15.50;99.90;;;;;;4989476;28;19930;-66
2022/10/18 06:11:39;;;;;;;;;;;15.50;99.90;;;;;;4991365;28;20293;-67
2022/10/18 06:14:07;;;;;;;;;;;15.50;99.90;;;;;;4987738;28;19930;-66
2022/10/18 06:16:34;;;;;;;;;;;15.50;99.90;;;;;;4991145;28;19930;-66
2022/10/18 06:19:01;;;;;;;;;;;15.50;99.90;;;;;;4990768;28;19925;-66
2022/10/18 06:21:28;;;;;;;;;;;15.40;99.90;;;;;;4991584;28;19933;-66
2022/10/18 06:23:55;;;;;;;;;;;15.40;99.90;;;;;;4991439;28;19937;-66
2022/10/18 06:26:22;;;;;;;;;;;15.40;99.90;;;;;;4991459;28;19925;-66
2022/10/18 06:28:51;;;;;;;;;;;15.50;99.90;;;;;;4986051;28;19929;-66
2022/10/18 06:31:19;;;;;;;;;;;15.50;99.90;;;;;;4990869;28;19933;-66
2022/10/18 06:33:46;;;;;;;;;;;15.50;99.90;;;;;;4991193;28;19933;-66
2022/10/18 06:36:13;;;;;;;;;;;15.50;99.90;;;;;;4993907;28;19926;-66
2022/10/18 06:38:40;;;;;;;;;;;15.60;99.90;;;;;;4994705;28;19926;-66
2022/10/18 06:41:07;;;;;;;;;;;15.60;99.90;;;;;;4994909;28;19926;-66
2022/10/18 06:43:34;;;;;;;;;;;15.60;99.90;;;;;;4994916;28;19930;-66
2022/10/18 06:46:03;;;;;;;;;;;15.60;99.90;;;;;;4994998;28;20007;-65
2022/10/18 06:48:31;;;;;;;;;;;15.60;99.90;;;;;;4994165;28;19981;-65
2022/10/18 06:50:58;;;;;;;;;;;15.50;99.90;;;;;;4994686;28;19937;-66
2022/10/18 06:53:26;;;;;;;;;;;15.50;99.90;;;;;;4994469;28;19930;-66
2022/10/18 06:55:53;;;;;;;;;;;15.50;99.90;;;;;;4994859;28;19941;-66
2022/10/18 06:58:19;;;;;;;;;;;15.50;99.90;;;;;;4994465;28;19929;-66
2022/10/18 07:00:46;;;;;;;;;;;15.60;99.90;;;;;;4994449;28;19933;-66
2022/10/18 07:03:14;;;;;;;;;;;15.60;99.90;;;;;;4994159;28;19936;-66
2022/10/18 07:05:41;;;;;;;;;;;15.60;99.90;;;;;;4994611;28;20356;-66
2022/10/18 07:08:08;;;;;;;;;;;15.60;99.90;;;;;;4993633;28;19926;-66
2022/10/18 07:10:35;;;;;;;;;;;15.60;99.90;;;;;;4994500;28;19930;-65
2022/10/18 07:13:02;;;;;;;;;;;15.50;99.90;;;;;;4994261;28;19936;-66
2022/10/18 07:15:28;;;;;;;;;;;15.60;99.90;;;;;;4993644;28;19926;-66
2022/10/18 07:17:55;;;;;;;;;;;15.60;99.90;;;;;;4993771;28;19933;-66
2022/10/18 07:20:24;;;;;;;;;;;15.60;99.90;;;;;;4993130;28;20389;-66
2022/10/18 07:22:50;;;;;;;;;;;15.70;99.90;;;;;;4994039;28;19925;-66
2022/10/18 07:25:17;;;;;;;;;;;15.70;99.90;;;;;;4994230;28;19926;-66
2022/10/18 07:27:44;;;;;;;;;;;15.70;99.90;;;;;;4993801;28;19933;-67
2022/10/18 07:30:11;;;;;;;;;;;15.70;99.90;;;;;;4993438;28;20455;-66
2022/10/18 07:32:38;;;;;;;;;;;15.60;99.90;;;;;;4993801;28;19973;-66
2022/10/18 07:35:05;;;;;;;;;;;15.60;99.90;;;;;;4992937;28;19926;-66
2022/10/18 07:37:33;;;;;;;;;;;15.70;99.90;;;;;;4993898;28;19933;-66
2022/10/18 07:40:00;;;;;;;;;;;15.80;99.90;;;;;;4992161;28;19926;-66
2022/10/18 07:42:26;;;;;;;;;;;15.80;99.90;;;;;;4993839;28;19977;-66
2022/10/18 07:44:53;;;;;;;;;;;15.80;99.90;;;;;;4993218;28;19926;-65
2022/10/18 07:47:20;;;;;;;;;;;15.90;99.90;;;;;;4993145;28;19935;-66
2022/10/18 07:49:47;;;;;;;;;;;15.90;99.90;;;;;;4992443;28;20420;-64
2022/10/18 07:52:13;;;;;;;;;;;16.00;99.90;;;;;;4979169;28;19926;-66
2022/10/18 07:54:41;;;;;;;;;;;16.00;99.90;;;;;;4974186;28;19933;-66
2022/10/18 07:57:08;;;;;;;;;;;16.10;99.90;;;;;;4973938;28;19933;-66
2022/10/18 07:59:35;;;;;;;;;;;16.10;99.90;;;;;;4973650;28;19930;-66
2022/10/18 08:02:02;;;;;;;;;;;16.10;99.90;;;;;;4973934;28;19973;-66
2022/10/18 08:04:29;;;;;;;;;;;16.20;99.90;;;;;;4973809;28;19949;-66
2022/10/18 08:06:55;;;;;;;;;;;16.20;99.90;;;;;;4972949;28;19930;-66
2022/10/18 08:09:22;;;;;;;;;;;16.20;99.90;;;;;;4973303;28;19926;-66
2022/10/18 08:11:50;;;;;;;;;;;16.10;99.90;;;;;;4983522;28;20294;-66
2022/10/18 08:14:17;;;;;;;;;;;16.10;99.90;;;;;;4992586;28;19930;-65
2022/10/18 08:16:44;;;;;;;;;;;16.10;99.90;;;;;;4988714;28;19933;-66
2022/10/18 08:19:11;;;;;;;;;;;16.10;99.90;;;;;;4973388;28;19926;-66
2022/10/18 08:21:37;;;;;;;;;;;16.00;99.90;;;;;;4973660;28;19930;-66
2022/10/18 08:24:05;;;;;;;;;;;15.90;99.90;;;;;;4973192;28;20440;-66
2022/10/18 08:26:31;;;;;;;;;;;16.00;99.90;;;;;;4973568;28;19927;-66
2022/10/18 08:29:00;;;;;;;;;;;15.90;99.90;;;;;;4972916;28;20309;-67
2022/10/18 08:31:26;;;;;;;;;;;16.00;99.90;;;;;;4973389;28;19930;-66
2022/10/18 08:33:54;;;;;;;;;;;16.10;99.90;;;;;;4973825;28;19930;-66
2022/10/18 08:36:21;;;;;;;;;;;16.10;99.90;;;;;;4973281;28;19926;-66
2022/10/18 08:38:48;;;;;;;;;;;16.20;99.90;;;;;;4973216;28;19926;-66
2022/10/18 08:41:25;;;;;;;;;;;16.30;99.90;;;;;;4972943;28;20385;-66
2022/10/18 08:43:56;;;;;;;;;;;16.30;99.90;;;;;;4973128;28;20297;-66
2022/10/18 08:46:25;;;;;;;;;;;16.40;99.90;;;;;;4973324;28;19926;-66
2022/10/18 08:48:53;;;;;;;;;;;16.50;99.90;;;;;;4972810;28;19985;-65
2022/10/18 08:51:25;;;;;;;;;;;16.50;99.90;;;;;;4973235;28;19969;-66
2022/10/18 08:53:55;;;;;;;;;;;16.40;99.90;;;;;;4980422;28;19930;-67
2022/10/18 08:56:23;;;;;;;;;;;16.40;99.90;;;;;;4988331;28;20412;-66
2022/10/18 08:58:50;;;;;;;;;;;16.40;99.90;;;;;;4990810;28;19926;-65
2022/10/18 09:01:24;;;;;;;;;;;16.30;99.90;;;;;;4991963;28;19930;-66
2022/10/18 09:04:08;;;;;;;;;;;16.40;99.90;;;;;;4991557;28;19933;-66
2022/10/18 09:06:37;;;;;;;;;;;16.40;99.90;;;;;;4992328;28;19926;-66
2022/10/18 09:09:11;;;;;;;;;;;16.40;99.90;;;;;;4991589;28;19930;-66
2022/10/18 09:11:51;;;;;;;;;;;16.50;99.90;;;;;;4992398;28;19930;-66
2022/10/18 09:14:30;;;;;;;;;;;16.60;99.90;;;;;;4991903;28;19944;-66
2022/10/18 09:17:02;;;;;;;;;;;16.70;99.90;;;;;;4991604;28;19926;-66
2022/10/18 09:19:37;;;;;;;;;;;16.80;99.90;;;;;;4991482;28;19976;-66
2022/10/18 09:22:08;;;;;;;;;;;16.90;99.90;;;;;;4991148;28;19926;-64
2022/10/18 09:24:38;;;;;;;;;;;17.00;99.90;;;;;;4992115;28;19926;-66
2022/10/18 09:27:10;;;;;;;;;;;17.10;99.90;;;;;;4991899;28;19949;-66
2022/10/18 09:29:46;;;;;;;;;;;17.20;99.90;;;;;;4990974;28;19952;-66
2022/10/18 09:32:18;;;;;;;;;;;17.20;99.90;;;;;;4990999;28;19930;-66
2022/10/18 09:34:50;;;;;;;;;;;17.20;99.90;;;;;;4991491;28;19925;-66
2022/10/18 09:37:19;;;;;;;;;;;17.20;99.90;;;;;;4991741;28;19957;-66
2022/10/18 09:39:48;;;;;;;;;;;17.20;99.90;;;;;;4991404;28;19933;-66
2022/10/18 09:42:17;;;;;;;;;;;17.20;99.90;;;;;;4991739;28;20269;-66
2022/10/18 09:44:47;;;;;;;;;;;17.20;99.90;;;;;;4990372;28;19926;-66
2022/10/18 09:47:16;;;;;;;;;;;17.10;99.90;;;;;;4988592;28;19989;-66
2022/10/18 09:49:45;;;;;;;;;;;17.10;99.90;;;;;;4991042;28;19929;-67
2022/10/18 09:52:18;;;;;;;;;;;17.10;99.90;;;;;;4991477;28;19966;-66
2022/10/18 09:54:47;;;;;;;;;;;17.10;99.90;;;;;;4991854;28;19930;-67
2022/10/18 09:57:16;;;;;;;;;;;17.10;99.90;;;;;;4991475;28;19933;-67
2022/10/18 09:59:43;;;;;;;;;;;17.20;99.90;;;;;;4990937;28;20309;-66
2022/10/18 10:02:12;;;;;;;;;;;17.20;99.90;;;;;;4991765;28;20347;-66
2022/10/18 10:04:39;;;;;;;;;;;17.30;99.90;;;;;;4991264;28;20073;-67
2022/10/18 10:07:07;;;;;;;;;;;17.20;99.90;;;;;;4991649;28;19925;-67
2022/10/18 10:09:40;;;;;;;;;;;17.10;99.90;;;;;;4991615;28;19930;-66
2022/10/18 10:12:24;;;;;;;;;;;17.00;99.90;;;;;;4995808;28;19925;-66
2022/10/18 10:14:51;;;;;;;;;;;17.00;99.90;;;;;;4995534;28;20308;-67
2022/10/18 10:17:21;;;;;;;;;;;16.90;99.90;;;;;;4995056;28;19929;-67
2022/10/18 10:19:56;;;;;;;;;;;17.00;99.90;;;;;;4994693;28;19929;-68
2022/10/18 10:22:26;;;;;;;;;;;17.00;99.90;;;;;;4994490;28;20028;-66
2022/10/18 10:24:55;;;;;;;;;;;17.10;99.90;;;;;;4994711;28;19926;-67
2022/10/18 10:27:24;;;;;;;;;;;17.20;99.90;;;;;;4993630;28;19925;-66
2022/10/18 10:29:57;;;;;;;;;;;17.30;99.90;;;;;;4986228;28;19930;-66
2022/10/18 10:32:26;;;;;;;;;;;17.40;99.90;;;;;;4991272;28;19933;-66
2022/10/18 10:34:53;;;;;;;;;;;17.50;99.90;;;;;;4994371;28;19926;-67
2022/10/18 10:37:37;;;;;;;;;;;17.60;99.90;;;;;;4994062;28;19925;-66
2022/10/18 10:40:09;;;;;;;;;;;17.60;99.90;;;;;;4993437;28;19926;-66
2022/10/18 10:42:37;;;;;;;;;;;17.60;99.90;;;;;;4994257;28;19973;-67
2022/10/18 10:45:05;;;;;;;;;;;17.60;99.90;;;;;;4994178;28;19925;-67
2022/10/18 10:47:33;;;;;;;;;;;17.90;99.90;;;;;;4994259;28;19930;-68
2022/10/18 10:50:08;;;;;;;;;;;19.30;99.90;;;;;;4993112;28;19926;-66
2022/10/18 10:52:37;;;;;;;;;;;19.90;99.90;;;;;;4993814;28;20351;-67
2022/10/18 10:55:05;;;;;;;;;;;19.60;99.90;;;;;;4993778;28;19926;-67
2022/10/18 10:57:33;;;;;;;;;;;19.00;99.90;;;;;;4993729;28;19926;-66
2022/10/18 11:00:00;;;;;;;;;;;18.60;99.90;;;;;;4978266;28;20364;-68
2022/10/18 11:02:30;;;;;;;;;;;18.60;99.90;;;;;;4995435;28;19926;-70
2022/10/18 11:04:57;;;;;;;;;;;18.60;99.90;;;;;;4992915;28;20452;-68
2022/10/18 11:07:27;;;;;;;;;;;19.00;99.90;;;;;;4993483;28;19948;-67
2022/10/18 11:09:59;;;;;;;;;;;18.90;99.90;;;;;;4992616;28;19926;-68
2022/10/18 11:12:29;;;;;;;;;;;20.30;99.90;;;;;;5013016;28;19926;-67
2022/10/18 11:15:16;;;;;;;;;;;22.40;99.90;;;;;;5012878;28;19925;-69
2022/10/18 11:17:47;;;;;;;;;;;25.90;99.90;;;;;;5006064;28;19925;-68
2022/10/18 11:20:22;;;;;;;;;;;27.40;99.90;;;;;;4994906;28;20408;-68
2022/10/18 11:22:54;;;;;;;;;;;28.40;99.90;;;;;;4993307;28;19929;-67
2022/10/18 11:25:23;;;;;;;;;;;26.00;99.90;;;;;;4992641;28;20278;-67
2022/10/18 11:27:54;;;;;;;;;;;23.70;99.90;;;;;;4992970;28;19938;-66
2022/10/18 11:30:37;;;;;;;;;;;22.80;99.90;;;;;;4992348;28;19932;-67
2022/10/18 11:33:10;;;;;;;;;;;22.30;99.90;;;;;;4992949;28;20290;-67
2022/10/18 11:35:41;;;;;;;;;;;22.00;99.90;;;;;;4992917;28;19934;-67
2022/10/18 11:38:15;;;;;;;;;;;21.60;99.90;;;;;;4988691;28;19925;-67
2022/10/18 11:40:48;;;;;;;;;;;21.80;99.90;;;;;;4974066;28;19931;-67
2022/10/18 11:43:20;;;;;;;;;;;21.80;99.90;;;;;;4984260;28;20473;-64
2022/10/18 11:45:51;;;;;;;;;;;22.00;99.90;;;;;;4993786;28;19925;-66
2022/10/18 11:48:37;;;;;;;;;;;21.70;99.90;;;;;;4993562;28;19948;-66
2022/10/18 11:51:08;;;;;;;;;;;21.20;99.90;;;;;;4993839;28;19929;-67
2022/10/18 11:53:40;;;;;;;;;;;20.60;99.90;;;;;;4993800;28;19925;-67
2022/10/18 11:56:12;;;;;;;;;;;20.50;99.90;;;;;;4982098;28;19926;-67
2022/10/18 11:58:45;;;;;;;;;;;22.30;99.90;;;;;;4989943;28;19941;-67
2022/10/18 12:01:16;;;;;;;;;;;23.60;99.90;;;;;;4992715;28;19926;-67
2022/10/18 12:03:54;;;;;;;;;;;23.10;99.90;;;;;;4976003;28;19930;-67
2022/10/18 12:06:21;;;;;;;;;;;21.70;99.90;;;;;;4973600;28;19948;-70
2022/10/18 12:08:50;;;;;;;;;;;20.70;99.90;;;;;;4972502;28;19930;-67
2022/10/18 12:11:19;;;;;;;;;;;20.00;99.90;;;;;;4992096;28;19925;-67
2022/10/18 12:13:48;;;;;;;;;;;19.40;99.90;;;;;;4995088;28;21675;-67
2022/10/18 12:16:15;;;;;;;;;;;18.80;99.90;;;;;;5011889;28;19929;-67
2022/10/18 12:18:47;;;;;;;;;;;18.60;99.90;;;;;;5011630;28;19925;-67
2022/10/18 12:21:19;;;;;;;;;;;18.50;99.90;;;;;;5011692;28;19932;-67
2022/10/18 12:23:49;;;;;;;;;;;18.30;99.90;;;;;;5012047;28;19932;-69
2022/10/18 12:26:17;;;;;;;;;;;18.30;99.90;;;;;;5012063;28;20392;-68
2022/10/18 12:28:47;;;;;;;;;;;18.50;99.90;;;;;;5011112;28;19929;-67
2022/10/18 12:31:19;;;;;;;;;;;18.60;99.90;;;;;;5011643;28;19941;-69
2022/10/18 12:33:48;;;;;;;;;;;18.70;99.90;;;;;;5010582;28;20343;-69
2022/10/18 12:36:21;;;;;;;;;;;18.80;99.90;;;;;;5011570;28;19942;-67
2022/10/18 12:38:50;;;;;;;;;;;18.90;99.90;;;;;;5011455;28;19976;-67
2022/10/18 12:41:20;;;;;;;;;;;19.40;99.90;;;;;;5011821;28;19933;-67
2022/10/18 12:43:51;;;;;;;;;;;19.80;99.90;;;;;;5011418;28;19925;-68
2022/10/18 12:46:18;;;;;;;;;;;20.20;99.90;;;;;;5011320;28;19925;-67
2022/10/18 12:48:48;;;;;;;;;;;20.90;99.90;;;;;;5010913;28;19925;-67
2022/10/18 12:51:15;;;;;;;;;;;21.00;99.90;;;;;;5011138;28;19929;-68
2022/10/18 12:53:44;;;;;;;;;;;21.20;99.90;;;;;;5011105;28;19929;-68
2022/10/18 12:56:33;;;;;;;;;;;23.40;99.90;;;;;;5011106;28;20020;-70
2022/10/18 12:59:14;;;;;;;;;;;26.50;99.90;;;;;;5010641;28;19926;-68
2022/10/18 13:01:56;;;;;;;;;;;28.80;99.90;;;;;;5010370;28;19930;-68
2022/10/18 13:04:33;;;;;;;;;;;30.90;99.90;;;;;;5010403;28;19979;-67
2022/10/18 13:07:15;;;;;;;;;;;30.40;99.90;;;;;;5011212;28;19933;-69
2022/10/18 13:10:03;;;;;;;;;;;29.10;99.90;;;;;;5007315;28;19925;-65
2022/10/18 13:12:48;;;;;;;;;;;28.40;99.90;;;;;;4971506;28;19930;-65
2022/10/18 13:15:29;;;;;;;;;;;26.40;99.90;;;;;;4971582;28;20008;-65
2022/10/18 13:17:58;;;;;;;;;;;26.80;99.90;;;;;;4971523;28;19926;-66
2022/10/18 13:20:28;;;;;;;;;;;28.20;99.90;;;;;;4970926;28;20397;-65
2022/10/18 13:23:02;;;;;;;;;;;29.50;99.90;;;;;;4971524;28;19926;-66
2022/10/18 13:25:35;;;;;;;;;;;29.50;99.90;;;;;;4971581;28;19926;-66
2022/10/18 13:28:04;;;;;;;;;;;29.70;99.90;;;;;;4971245;28;19926;-64
2022/10/18 13:30:34;;;;;;;;;;;30.10;99.90;;;;;;4971420;28;19930;-69
2022/10/18 13:33:07;;;;;;;;;;;29.90;99.90;;;;;;4981398;28;20356;-67
2022/10/18 13:35:44;;;;;;;;;;;29.10;99.90;;;;;;4989897;28;19925;-66
2022/10/18 13:38:25;;;;;;;;;;;28.40;99.90;;;;;;4984574;28;19973;-68
2022/10/18 13:41:01;;;;;;;;;;;28.10;99.90;;;;;;4984219;28;19926;-69
2022/10/18 13:43:46;;;;;;;;;;;28.90;99.90;;;;;;4989882;28;19940;-68
2022/10/18 13:46:13;;;;;;;;;;;29.80;99.90;;;;;;4985001;28;19934;-67
2022/10/18 13:48:47;;;;;;;;;;;29.90;99.90;;;;;;4988540;28;19938;-67
2022/10/18 13:51:31;;;;;;;;;;;29.90;99.90;;;;;;4988792;28;19973;-68
2022/10/18 13:54:01;;;;;;;;;;;30.60;99.90;;;;;;4990089;28;19926;-67
2022/10/18 13:56:40;;;;;;;;;;;31.20;99.90;;;;;;4986581;28;19976;-67
2022/10/18 13:59:23;;;;;;;;;;;31.10;99.90;;;;;;4989340;28;19926;-70
2022/10/18 14:02:00;;;;;;;;;;;31.40;99.90;;;;;;4990225;28;19928;-69
2022/10/18 14:04:41;;;;;;;;;;;30.20;99.90;;;;;;4985735;28;19926;-68
2022/10/18 14:07:08;;;;;;;;;;;30.10;99.90;;;;;;4985841;28;19925;-68
2022/10/18 14:09:43;;;;;;;;;;;29.90;99.90;;;;;;4989350;28;20016;-69
2022/10/18 14:12:16;;;;;;;;;;;29.60;99.90;;;;;;4991865;28;19933;-68
2022/10/18 14:14:45;;;;;;;;;;;29.50;99.90;;;;;;4989048;28;19926;-68
2022/10/18 14:17:16;;;;;;;;;;;28.90;99.90;;;;;;4989682;28;19969;-68
2022/10/18 14:19:44;;;;;;;;;;;27.50;99.90;;;;;;4987355;28;19927;-69
2022/10/18 14:22:15;;;;;;;;;;;26.40;99.90;;;;;;4990160;28;19934;-68
2022/10/18 14:24:44;;;;;;;;;;;26.30;99.90;;;;;;4989702;28;19930;-67
2022/10/18 14:27:18;;;;;;;;;;;27.10;99.90;;;;;;4989974;28;20364;-68
2022/10/18 14:29:45;;;;;;;;;;;27.40;99.90;;;;;;4989230;28;20396;-68
2022/10/18 14:32:21;;;;;;;;;;;27.70;99.90;;;;;;4989906;28;19926;-67
2022/10/18 14:34:48;;;;;;;;;;;28.10;99.90;;;;;;4988122;28;19933;-68
2022/10/18 14:37:20;;;;;;;;;;;28.40;99.90;;;;;;4989856;28;19976;-69
2022/10/18 14:39:47;;;;;;;;;;;28.50;99.90;;;;;;4989421;28;19952;-69
2022/10/18 14:42:21;;;;;;;;;;;28.30;99.90;;;;;;4989897;28;19926;-69
2022/10/18 14:44:48;;;;;;;;;;;28.30;99.90;;;;;;4989604;28;19972;-68
2022/10/18 14:47:16;;;;;;;;;;;28.00;99.90;;;;;;4989922;28;19969;-67
2022/10/18 14:49:43;;;;;;;;;;;27.90;99.90;;;;;;4989096;28;20289;-68
2022/10/18 14:52:12;;;;;;;;;;;27.80;99.90;;;;;;4989762;28;19933;-68
2022/10/18 14:54:39;;;;;;;;;;;28.00;99.90;;;;;;4989359;28;19926;-68
2022/10/18 14:57:06;;;;;;;;;;;28.10;99.90;;;;;;4992406;28;20401;-68
2022/10/18 14:59:39;;;;;;;;;;;27.90;99.90;;;;;;4992644;28;19985;-69
2022/10/18 15:02:12;;;;;;;;;;;27.70;99.90;;;;;;4993424;28;19926;-68
2022/10/18 15:04:39;;;;;;;;;;;27.40;99.90;;;;;;4992822;28;19926;-67
2022/10/18 15:07:07;;;;;;;;;;;27.40;99.90;;;;;;4988973;28;19965;-68
2022/10/18 15:09:35;;;;;;;;;;;27.00;99.90;;;;;;4982185;28;19926;-68
2022/10/18 15:12:03;;;;;;;;;;;27.20;99.90;;;;;;4986939;28;19926;-68
2022/10/18 15:14:30;;;;;;;;;;;27.30;99.90;;;;;;4992021;28;19926;-73
2022/10/18 15:17:01;;;;;;;;;;;27.40;99.90;;;;;;4986608;28;19988;-69
2022/10/18 15:19:30;;;;;;;;;;;27.40;99.90;;;;;;4987253;28;19932;-67
2022/10/18 15:21:57;;;;;;;;;;;27.00;99.90;;;;;;4992647;28;19926;-68
2022/10/18 15:24:34;;;;;;;;;;;27.10;99.90;;;;;;4982419;28;19933;-67
2022/10/18 15:27:08;;;;;;;;;;;26.80;99.90;;;;;;4983762;28;19964;-67
2022/10/18 15:29:36;;;;;;;;;;;26.90;99.90;;;;;;4984255;28;19926;-68
2022/10/18 15:32:14;;;;;;;;;;;26.60;99.90;;;;;;4982847;28;19925;-67
2022/10/18 15:34:41;;;;;;;;;;;26.70;99.90;;;;;;4989754;28;19929;-65
2022/10/18 15:37:15;;;;;;;;;;;26.20;99.90;;;;;;4975105;28;19926;-70
2022/10/18 15:39:42;;;;;;;;;;;26.10;99.90;;;;;;4979669;28;20524;-69
2022/10/18 15:42:30;;;;;;;;;;;26.10;99.90;;;;;;4986403;28;19973;-67
2022/10/18 15:44:57;;;;;;;;;;;26.00;99.90;;;;;;4991933;28;20393;-66
2022/10/18 15:47:25;;;;;;;;;;;26.00;99.90;;;;;;4987871;28;20365;-67
2022/10/18 15:49:54;;;;;;;;;;;25.60;99.90;;;;;;4986067;28;20380;-67
2022/10/18 15:52:32;;;;;;;;;;;25.30;99.90;;;;;;4983672;28;19931;-69
2022/10/18 15:54:59;;;;;;;;;;;25.20;99.90;;;;;;4976959;28;19933;-68
2022/10/18 15:57:26;;;;;;;;;;;25.00;99.90;;;;;;4988708;28;19933;-67
2022/10/18 15:59:54;;;;;;;;;;;24.90;99.90;;;;;;4988513;28;19933;-66
2022/10/18 16:02:21;;;;;;;;;;;24.60;99.90;;;;;;4992294;28;19941;-67
2022/10/18 16:04:49;;;;;;;;;;;24.30;99.90;;;;;;4992152;28;19988;-66
2022/10/18 16:07:16;;;;;;;;;;;24.00;99.90;;;;;;4986043;28;19990;-66
2022/10/18 16:09:43;;;;;;;;;;;23.10;99.90;;;;;;4990114;28;19943;-67
2022/10/18 16:12:10;;;;;;;;;;;22.30;99.90;;;;;;4989066;28;19934;-66
2022/10/18 16:14:36;;;;;;;;;;;21.70;99.90;;;;;;4990068;28;19937;-66
2022/10/18 16:17:04;;;;;;;;;;;21.20;99.90;;;;;;4991745;28;19993;-66
2022/10/18 16:19:32;;;;;;;;;;;20.80;99.90;;;;;;5004904;28;19933;-66
2022/10/18 16:22:00;;;;;;;;;;;20.40;99.90;;;;;;4991412;28;19929;-68
2022/10/18 16:24:27;;;;;;;;;;;20.10;99.90;;;;;;4979366;28;19977;-65
2022/10/18 16:26:54;;;;;;;;;;;19.80;99.90;;;;;;4983981;28;19926;-65
2022/10/18 16:29:24;;;;;;;;;;;19.50;99.90;;;;;;4983221;28;19926;-66
2022/10/18 16:31:52;;;;;;;;;;;19.10;99.90;;;;;;4980812;28;19926;-68
2022/10/18 16:34:19;;;;;;;;;;;18.70;99.90;;;;;;4982295;28;19933;-71
2022/10/18 16:36:46;;;;;;;;;;;18.50;99.90;;;;;;4979563;28;19981;-66
2022/10/18 16:39:15;;;;;;;;;;;18.40;99.90;;;;;;4986766;28;19930;-68
2022/10/18 16:41:42;;;;;;;;;;;18.20;99.90;;;;;;4988325;28;19958;-67
2022/10/18 16:44:09;;;;;;;;;;;18.00;99.90;;;;;;4984501;28;19930;-68
2022/10/18 16:46:36;;;;;;;;;;;17.90;99.90;;;;;;4990217;28;19929;-68
2022/10/18 16:49:03;;;;;;;;;;;17.80;99.90;;;;;;4989759;28;19937;-65
2022/10/18 16:51:30;;;;;;;;;;;17.50;99.90;;;;;;4983661;28;19949;-69
2022/10/18 16:53:57;;;;;;;;;;;17.40;99.90;;;;;;4989004;28;19926;-66
2022/10/18 16:56:26;;;;;;;;;;;17.20;99.90;;;;;;4990520;28;19940;-67
2022/10/18 16:58:54;;;;;;;;;;;17.00;99.90;;;;;;4989998;28;19930;-68
2022/10/18 17:01:21;;;;;;;;;;;16.90;99.90;;;;;;4987868;28;19937;-68
2022/10/18 17:03:50;;;;;;;;;;;16.80;99.90;;;;;;4987917;28;20013;-67
2022/10/18 17:06:19;;;;;;;;;;;16.70;99.90;;;;;;4986237;28;20021;-67
2022/10/18 17:08:45;;;;;;;;;;;16.50;99.90;;;;;;4988349;28;19933;-67
2022/10/18 17:11:13;;;;;;;;;;;16.40;99.90;;;;;;4990130;28;19930;-68
2022/10/18 17:13:41;;;;;;;;;;;16.30;99.90;;;;;;4988966;28;19926;-68
2022/10/18 17:16:16;;;;;;;;;;;16.20;99.90;;;;;;4987970;28;19930;-67
2022/10/18 17:18:42;;;;;;;;;;;16.10;99.90;;;;;;4984376;28;19926;-69
2022/10/18 17:21:09;;;;;;;;;;;16.00;99.90;;;;;;4985505;28;20349;-67
2022/10/18 17:23:36;;;;;;;;;;;15.80;99.90;;;;;;4988536;28;19926;-67
2022/10/18 17:26:03;;;;;;;;;;;15.70;99.90;;;;;;4986595;28;19936;-66
2022/10/18 17:28:30;;;;;;;;;;;15.70;99.90;;;;;;4989604;28;19925;-69
2022/10/18 17:30:58;;;;;;;;;;;15.60;99.90;;;;;;4989539;28;19926;-67